Flugplatz Schweighofen

Für EDRO sind keine METAR/TAF Berichte vorhanden.
Es werden die Flugwettermeldungen vom Flugplatz Karlsruhe Baden-Baden in 28 km Entfernung angezeigt.

Bericht für EDSB

vom 14.11. um 10:50 UTC

Wind 3 kt aus 200°

Sichtweite 10 km oder mehr

gute Sicht, keine Wolken < 5000 ft, keine CB, keine Wettererscheinungen (CAVOK)

Temperatur 5.0°C

Taupunkt 2.0°C

Luftfeuchtigkeit 81%

Luftdruck 1003 hPa

EDSB 141050Z 20003KT 160V230 CAVOK 05/02 Q1003

Prognose für EDSB

vom 14.11. um 00:00 UTC

Zwischen 00:00 UTC und 00:00 UTC

Wind 5 kt aus 40°

Sichtweite 10 km oder mehr

keine signifikanten Wettererscheinungen

keine Wolken


Zwischen 00:00 UTC und 00:00 UTC zeitweise mit einer Wahrscheinlichkeit von 40%

Sichtweite 1000 m

Nebelschwaden


Zwischen 00:00 UTC und 00:00 UTC zeitweise

Sichtweite 1000 m

Nebelschwaden

aufgebrochene Bewölkung in 200 ft

TAF EDSB 140500Z 1406/1506 04005KT CAVOK PROB40 TEMPO 1406/1408 1000 BCFG TEMPO 1422/1506 1000 BCFG BKN002
Impressum